MET'MAP v2.0
soon released !

Expected late october,
this new version will be
more efficient, smarter,
and hosted on a brand new
server x3 powerfull...
...and still free !


Not compatible ?
Try the mobile version !

LOG IN : | Subscribe | Disclaimer | Who is Orbifly ? |
ICAO code :
Legend : VFR Marginal VFR IFR Intensive IFR Very Intensive IFR
Visi :
Ceiling :
>= 8 km
>= 3000ft
5 to 8 km
1000 to 3000 ft
1500m to 5 km
500 to 1000 ft
800 to 1500m
200 to 500 ft
< 800m
< 200 ft

METAR - LOWG Graz - 29 Nov 2020 18:37 UTC - Data Source NOAA   


- Airport Elevation : 1115 ft
- IATA code : GRZ
- No reported NOTAMs.


LOWG - Graz

Latest METAR recorded : 2015/08/11 07:50 LOWG 110750Z VRB01KT 9999 FEW060 SCT300 25/14 Q1016 NOSIG
TAF TAF LOWG
Valid from the 29 at 12:00 until the 30 at 12:00 UTC


291115Z 2912/3012 VRB02KT 9999 FEW010 TX04/2913Z TNM05/3006Z
TEMPO 2916/2918 4000 BCFG MIFG
TEMPO 2918/3008 0700 FZFG
PROB40
TEMPO 2922/3008 0300 FZFG VV001
TEMPO 3008/3010 2000 BKN002
PROB30 3010/3012 16007KT BKN006

Source NOAA


MET'MAP, your aeronautical weather chart ! - Copyright ORBIFLY December 2007

Programming & Development : Alexandra Zaïnal
Co-Developer : Marc-Olivier Méhu
Technical & hardware support : Manuel Goepfert
Concept & Financing : Baudouin d'Aumeries